Time;durP1;ratioP1;P1;durP2;ratioP2;P2;SDS_P1;SDS_P2;PMS_P1;PMS_P2;Temp;Humidity;BMP_temperature;BMP_pressure;BME280_temperature;BME280_humidity;BME280_pressure;Samples;Min_cycle;Max_cycle;Signal;HPM_P1;HPM_P2
2021/05/05 00:00:07;;;;;;;19.35;8.33;;;;;;;12.70;46.04;96936.05;1761567;81;21121;-72
2021/05/05 00:02:35;;;;;;;16.10;7.30;;;;;;;12.69;46.19;96929.81;1761181;80;21132;-72
2021/05/05 00:05:01;;;;;;;19.23;9.88;;;;;;;12.68;46.11;96929.58;1761646;81;21133;-72
2021/05/05 00:07:27;;;;;;;21.87;13.58;;;;;;;12.64;46.60;96929.16;1761549;80;21221;-72
2021/05/05 00:09:53;;;;;;;22.15;11.78;;;;;;;12.58;46.94;96923.66;1761429;81;21136;-72
2021/05/05 00:12:19;;;;;;;22.62;11.05;;;;;;;12.55;46.93;96921.56;1761611;80;21129;-73
2021/05/05 00:14:45;;;;;;;22.22;10.53;;;;;;;12.53;47.12;96914.30;1761597;81;21046;-73
2021/05/05 00:17:12;;;;;;;20.15;10.08;;;;;;;12.52;47.15;96915.42;1761664;80;21088;-73
2021/05/05 00:19:38;;;;;;;18.37;7.35;;;;;;;12.48;47.56;96911.75;1761610;81;21203;-73
2021/05/05 00:22:06;;;;;;;7.58;4.12;;;;;;;12.49;47.49;96897.05;1761559;80;21499;-73
2021/05/05 00:24:32;;;;;;;14.95;6.65;;;;;;;12.63;47.07;96894.95;1735819;81;21085;-73
2021/05/05 00:26:59;;;;;;;13.55;5.90;;;;;;;12.76;46.82;96906.23;1761630;80;21037;-73
2021/05/05 00:29:25;;;;;;;9.33;4.72;;;;;;;12.83;46.77;96906.55;1761520;81;21125;-72
2021/05/05 00:31:51;;;;;;;16.62;6.65;;;;;;;12.84;46.83;96902.71;1761554;80;21271;-73
2021/05/05 00:34:17;;;;;;;10.95;4.58;;;;;;;12.86;46.91;96898.31;1761562;81;21046;-72
2021/05/05 00:36:43;;;;;;;13.22;5.85;;;;;;;12.85;46.80;96898.08;1761697;80;21133;-73
2021/05/05 00:39:09;;;;;;;12.28;6.03;;;;;;;12.83;46.98;96897.61;1761749;81;21152;-73
2021/05/05 00:41:36;;;;;;;19.12;7.35;;;;;;;12.84;47.10;96897.28;1761783;80;21025;-73
2021/05/05 00:44:02;;;;;;;12.73;5.47;;;;;;;12.90;46.79;96892.45;1761706;81;21189;-73
2021/05/05 00:46:29;;;;;;;9.35;4.12;;;;;;;12.96;46.96;96900.69;1761705;80;21057;-73
2021/05/05 00:48:55;;;;;;;11.18;4.92;;;;;;;12.92;46.79;96899.75;1761580;81;21160;-73
2021/05/05 00:51:21;;;;;;;13.08;5.42;;;;;;;12.90;46.81;96898.72;1761694;80;21233;-72
2021/05/05 00:53:47;;;;;;;9.38;3.62;;;;;;;12.83;48.12;96897.04;1761807;81;21546;-73
2021/05/05 00:56:14;;;;;;;5.20;3.22;;;;;;;12.69;48.85;96894.48;1761760;80;21205;-72
2021/05/05 00:58:40;;;;;;;8.15;3.75;;;;;;;12.59;48.83;96894.00;1761656;81;21148;-72
2021/05/05 01:01:06;;;;;;;4.92;3.15;;;;;;;12.51;48.59;96892.09;1761725;80;21050;-72
2021/05/05 01:03:32;;;;;;;6.50;3.08;;;;;;;12.36;49.31;96886.55;1761715;81;21152;-72
2021/05/05 01:06:00;;;;;;;5.67;2.98;;;;;;;12.26;49.57;96893.09;1761678;81;21085;-72
2021/05/05 01:08:26;;;;;;;5.05;2.50;;;;;;;12.17;49.70;96884.70;1761723;81;21200;-73
2021/05/05 01:10:52;;;;;;;8.93;3.90;;;;;;;12.08;50.67;96890.11;1761701;81;21113;-72
2021/05/05 01:13:19;;;;;;;6.35;3.42;;;;;;;11.95;51.27;96882.88;1761776;80;21045;-72
2021/05/05 01:15:45;;;;;;;3.62;2.67;;;;;;;11.84;51.69;96884.53;1761643;81;21133;-72
2021/05/05 01:18:11;;;;;;;7.33;2.90;;;;;;;11.79;52.07;96886.55;1761697;80;21120;-72
2021/05/05 01:20:37;;;;;;;4.97;3.17;;;;;;;11.74;51.87;96886.72;1761672;81;22074;-72
2021/05/05 01:23:03;;;;;;;13.95;5.25;;;;;;;11.65;53.52;96885.88;1761709;80;21498;-72
2021/05/05 01:25:29;;;;;;;7.55;4.12;;;;;;;11.57;52.55;96880.11;1761645;81;21050;-72
2021/05/05 01:27:56;;;;;;;5.90;3.90;;;;;;;11.50;53.46;96891.16;1761757;80;21038;-72
2021/05/05 01:30:22;;;;;;;7.10;4.00;;;;;;;11.44;53.26;96882.91;1761719;81;21101;-73
2021/05/05 01:32:49;;;;;;;5.80;3.50;;;;;;;11.38;53.13;96882.27;1761659;80;21192;-72
2021/05/05 01:35:17;;;;;;;4.37;2.72;;;;;;;11.35;53.15;96877.45;1761579;81;21042;-72
2021/05/05 01:37:43;;;;;;;4.83;2.85;;;;;;;11.32;54.47;96885.42;1761737;80;21110;-72
2021/05/05 01:40:13;;;;;;;4.25;2.95;;;;;;;11.28;53.85;96879.83;1761708;81;21113;-72
2021/05/05 01:42:39;;;;;;;5.58;2.72;;;;;;;11.22;53.68;96877.80;1761757;80;21034;-72
2021/05/05 01:45:07;;;;;;;9.30;3.55;;;;;;;11.17;54.71;96877.13;1761748;81;21201;-72
2021/05/05 01:47:33;;;;;;;5.42;3.87;;;;;;;11.13;54.46;96877.52;1761798;80;21490;-72
2021/05/05 01:49:59;;;;;;;5.05;2.90;;;;;;;11.11;55.10;96875.64;1759445;81;21078;-73
2021/05/05 01:52:25;;;;;;;5.55;3.90;;;;;;;11.00;57.50;96873.20;1755437;80;21029;-73
2021/05/05 01:54:51;;;;;;;4.62;2.80;;;;;;;10.94;56.42;96869.03;1755477;81;21153;-72
2021/05/05 01:57:36;;;;;;;3.47;2.77;;;;;;;10.90;55.68;96861.26;1755440;80;21180;-72
2021/05/05 02:00:06;;;;;;;9.60;3.40;;;;;;;10.84;55.82;96863.84;1755460;81;21149;-73
2021/05/05 02:02:32;;;;;;;6.78;3.50;;;;;;;10.76;57.22;96861.88;1754373;80;21109;-73
2021/05/05 02:04:58;;;;;;;7.25;3.62;;;;;;;10.75;56.91;96861.63;1755425;81;21038;-73
2021/05/05 02:07:25;;;;;;;4.50;3.17;;;;;;;10.77;56.30;96859.97;1755441;80;21093;-73
2021/05/05 02:09:51;;;;;;;7.58;3.67;;;;;;;10.76;56.91;96861.08;1755388;81;21534;-73
2021/05/05 02:12:17;;;;;;;5.15;3.67;;;;;;;10.74;57.69;96867.61;1755409;80;21463;-73
2021/05/05 02:14:46;;;;;;;5.20;3.35;;;;;;;10.69;58.69;96865.04;1755411;81;21046;-73
2021/05/05 02:17:12;;;;;;;7.17;3.47;;;;;;;10.69;58.69;96865.04;1755565;80;21078;-73
2021/05/05 02:19:38;;;;;;;4.37;2.95;;;;;;;10.64;59.20;96853.52;1755512;81;21184;-73
2021/05/05 02:22:04;;;;;;;5.75;3.00;;;;;;;10.58;58.95;96854.73;1755450;80;21187;-73
2021/05/05 02:24:30;;;;;;;13.68;3.70;;;;;;;10.52;58.97;96850.02;1755346;81;21132;-73
2021/05/05 02:26:56;;;;;;;4.47;2.60;;;;;;;10.51;58.32;96852.48;1755442;80;21435;-73
2021/05/05 02:29:22;;;;;;;9.48;3.52;;;;;;;10.46;58.65;96855.30;1755478;81;21149;-73
2021/05/05 02:31:49;;;;;;;5.08;3.20;;;;;;;10.42;58.52;96857.00;1755527;80;21431;-73
2021/05/05 02:34:16;;;;;;;13.40;3.65;;;;;;;10.44;59.06;96857.52;1755444;81;21199;-73
2021/05/05 02:36:42;;;;;;;5.37;3.45;;;;;;;10.47;60.84;96850.68;1755338;80;21094;-73
2021/05/05 02:39:09;;;;;;;5.67;3.15;;;;;;;10.48;61.69;96843.59;1755469;81;21065;-73
2021/05/05 02:41:37;;;;;;;8.10;3.55;;;;;;;10.49;61.57;96838.98;1755395;80;21076;-73
2021/05/05 02:44:04;;;;;;;6.42;3.80;;;;;;;10.48;60.84;96840.89;1755749;81;21129;-73
2021/05/05 02:46:30;;;;;;;10.03;3.62;;;;;;;10.52;60.53;96841.89;1755483;80;21251;-73
2021/05/05 02:48:57;;;;;;;6.47;3.20;;;;;;;10.58;60.58;96839.28;1755433;81;21156;-73
2021/05/05 02:51:23;;;;;;;6.55;4.00;;;;;;;10.56;61.55;96833.38;1760389;80;21232;-73
2021/05/05 02:53:49;;;;;;;7.05;3.67;;;;;;;10.51;60.79;96835.40;1761601;81;21172;-73
2021/05/05 02:56:15;;;;;;;15.38;4.70;;;;;;;10.47;60.85;96831.72;1761599;80;21100;-73
2021/05/05 02:58:42;;;;;;;12.33;3.95;;;;;;;10.50;60.46;96833.25;1761709;81;21967;-73
2021/05/05 03:01:08;;;;;;;7.45;3.87;;;;;;;10.50;61.10;96826.48;1761499;80;21074;-73
2021/05/05 03:03:34;;;;;;;8.15;3.87;;;;;;;10.51;60.34;96827.28;1761604;81;21117;-73
2021/05/05 03:06:00;;;;;;;6.62;3.87;;;;;;;10.52;60.21;96826.99;1761533;80;21801;-73
2021/05/05 03:08:26;;;;;;;7.85;4.17;;;;;;;10.51;61.08;96826.75;1761591;81;21116;-73
2021/05/05 03:10:53;;;;;;;8.35;4.20;;;;;;;10.45;61.02;96824.70;1761562;81;21502;-73
2021/05/05 03:13:19;;;;;;;6.75;3.98;;;;;;;10.38;62.64;96819.47;1761619;80;21049;-73
2021/05/05 03:15:45;;;;;;;8.03;4.05;;;;;;;10.34;62.06;96819.30;1761594;81;21132;-73
2021/05/05 03:18:11;;;;;;;8.85;3.70;;;;;;;10.32;61.09;96821.48;1761595;80;21529;-73
2021/05/05 03:20:37;;;;;;;8.05;3.50;;;;;;;10.26;61.23;96828.15;1761549;81;21077;-73
2021/05/05 03:23:03;;;;;;;8.83;3.98;;;;;;;10.22;60.98;96825.79;1761587;80;21254;-73
2021/05/05 03:25:29;;;;;;;7.05;4.05;;;;;;;10.19;62.26;96825.03;1761491;81;21062;-73
2021/05/05 03:27:55;;;;;;;8.25;3.45;;;;;;;10.15;62.51;96821.31;1761650;80;21435;-73
2021/05/05 03:30:22;;;;;;;8.05;4.25;;;;;;;10.13;63.64;96820.27;1761527;81;21140;-73
2021/05/05 03:32:49;;;;;;;6.05;4.15;;;;;;;10.13;63.35;96823.53;1761590;80;21395;-73
2021/05/05 03:35:15;;;;;;;10.25;4.83;;;;;;;10.11;63.42;96813.02;1761569;81;21201;-73
2021/05/05 03:37:41;;;;;;;9.28;4.25;;;;;;;10.13;63.84;96812.70;1761582;80;21549;-73
2021/05/05 03:40:09;;;;;;;9.53;4.70;;;;;;;10.15;63.00;96811.84;1761643;81;21046;-73
2021/05/05 03:42:35;;;;;;;10.90;5.60;;;;;;;10.19;63.01;96804.72;1761549;80;21148;-73
2021/05/05 03:45:04;;;;;;;20.17;6.33;;;;;;;10.22;63.99;96805.48;1735801;81;21545;-73
2021/05/05 03:47:30;;;;;;;;;;;;;;;10.27;63.78;96806.73;1763367;80;21113;-73
2021/05/05 03:49:56;;;;;;;5.28;3.98;;;;;;;10.34;63.00;96806.28;1760893;81;20239;-73
2021/05/05 03:52:22;;;;;;;7.75;4.10;;;;;;;10.36;62.47;96805.45;1755448;80;21117;-73
2021/05/05 03:54:49;;;;;;;11.80;5.72;;;;;;;10.34;62.83;96804.93;1755340;81;21117;-72
2021/05/05 03:57:15;;;;;;;14.68;5.05;;;;;;;10.37;62.28;96811.91;1755380;80;21089;-72
2021/05/05 03:59:41;;;;;;;11.20;5.70;;;;;;;10.44;62.18;96808.77;1755513;81;21191;-72
2021/05/05 04:02:07;;;;;;;10.43;4.80;;;;;;;10.43;62.32;96813.39;1755367;80;21431;-72
2021/05/05 04:04:33;;;;;;;12.20;6.58;;;;;;;10.46;62.82;96814.67;1755479;81;21534;-72
2021/05/05 04:06:59;;;;;;;14.58;6.85;;;;;;;10.48;62.32;96821.13;1755301;80;21133;-72
2021/05/05 04:09:26;;;;;;;10.30;6.00;;;;;;;10.51;62.16;96818.62;1755486;81;21511;-72
2021/05/05 04:11:52;;;;;;;10.82;6.22;;;;;;;10.51;62.53;96824.56;1755512;80;21264;-72
2021/05/05 04:14:18;;;;;;;18.92;7.17;;;;;;;10.51;62.37;96821.33;1755625;81;21479;-73
2021/05/05 04:16:44;;;;;;;10.45;5.60;;;;;;;10.53;62.12;96812.89;1755571;80;21136;-72
2021/05/05 04:19:10;;;;;;;15.70;4.70;;;;;;;10.55;62.76;96816.89;1755643;81;21565;-72
2021/05/05 04:21:36;;;;;;;15.48;5.62;;;;;;;10.55;62.76;96816.89;1755521;80;21428;-72
2021/05/05 04:24:04;;;;;;;13.00;4.83;;;;;;;10.60;62.12;96814.06;1755562;81;22145;-72
2021/05/05 04:26:30;;;;;;;8.23;3.85;;;;;;;10.64;62.06;96817.74;1755449;80;21046;-72
2021/05/05 04:28:56;;;;;;;10.70;4.83;;;;;;;10.68;62.14;96817.39;1755500;81;21148;-73
2021/05/05 04:31:23;;;;;;;14.40;4.90;;;;;;;10.66;62.32;96821.49;1755573;80;21196;-72
2021/05/05 04:33:49;;;;;;;5.35;4.08;;;;;;;10.67;62.07;96817.11;1755624;81;21078;-72
2021/05/05 04:36:15;;;;;;;13.32;4.87;;;;;;;10.67;62.07;96817.11;1755471;80;21260;-72
2021/05/05 04:38:42;;;;;;;9.95;4.28;;;;;;;10.68;63.34;96817.91;1755563;81;21133;-72
2021/05/05 04:41:08;;;;;;;13.13;5.47;;;;;;;10.71;62.67;96824.89;1755440;80;21050;-72
2021/05/05 04:43:34;;;;;;;21.52;4.47;;;;;;;10.77;62.64;96820.15;1755537;81;21128;-72
2021/05/05 04:46:00;;;;;;;8.80;4.10;;;;;;;10.89;63.74;96817.66;1755485;80;21101;-72
2021/05/05 04:48:27;;;;;;;10.68;5.03;;;;;;;10.89;63.74;96817.66;1755597;81;21146;-73
2021/05/05 04:50:53;;;;;;;10.08;5.12;;;;;;;10.95;63.34;96816.42;1758546;81;21078;-73
2021/05/05 04:53:19;;;;;;;11.73;5.72;;;;;;;11.06;63.85;96819.66;1764136;80;21054;-72
2021/05/05 04:55:45;;;;;;;16.00;5.80;;;;;;;11.13;63.26;96815.16;1764090;81;21101;-72
2021/05/05 04:58:11;;;;;;;9.38;4.78;;;;;;;11.27;62.68;96817.19;1764240;80;21101;-72
2021/05/05 05:00:38;;;;;;;11.03;5.03;;;;;;;11.30;62.75;96810.60;1764178;81;21203;-72
2021/05/05 05:03:04;;;;;;;12.05;4.70;;;;;;;11.45;62.26;96816.17;1764086;80;21129;-73
2021/05/05 05:05:30;;;;;;;13.70;5.17;;;;;;;11.50;62.32;96820.08;1764180;81;21427;-72
2021/05/05 05:07:58;;;;;;;11.15;5.53;;;;;;;11.64;62.33;96824.04;1764199;80;21038;-72
2021/05/05 05:10:24;;;;;;;12.15;4.85;;;;;;;11.64;62.33;96824.04;1764086;81;21091;-73
2021/05/05 05:12:50;;;;;;;7.78;4.05;;;;;;;11.66;61.77;96819.65;1764131;80;21247;-72
2021/05/05 05:15:16;;;;;;;12.75;5.90;;;;;;;11.68;61.74;96829.63;1764116;81;21168;-72
2021/05/05 05:17:43;;;;;;;16.07;5.67;;;;;;;11.69;61.85;96829.86;1764179;80;21132;-72
2021/05/05 05:20:09;;;;;;;12.45;4.83;;;;;;;11.72;61.67;96829.25;1764110;81;21128;-72
2021/05/05 05:22:36;;;;;;;9.08;5.25;;;;;;;11.82;61.45;96834.41;1764198;80;21049;-72
2021/05/05 05:25:10;;;;;;;7.83;4.20;;;;;;;11.88;61.85;96829.08;1764192;81;21252;-73
2021/05/05 05:27:37;;;;;;;10.18;4.65;;;;;;;11.98;61.24;96833.41;1764069;80;21034;-72
2021/05/05 05:30:06;;;;;;;13.65;4.62;;;;;;;12.04;61.14;96826.69;1764159;81;21105;-72
2021/05/05 05:32:32;;;;;;;12.55;5.65;;;;;;;12.08;61.54;96830.37;1764249;80;21104;-72
2021/05/05 05:34:58;;;;;;;6.60;4.47;;;;;;;12.14;61.46;96829.11;1764117;81;21136;-72
2021/05/05 05:37:25;;;;;;;19.00;7.03;;;;;;;12.21;61.94;96828.05;1764018;80;21192;-72
2021/05/05 05:39:51;;;;;;;12.68;6.37;;;;;;;12.29;61.54;96825.91;1764138;81;21153;-72
2021/05/05 05:42:17;;;;;;;14.50;10.75;;;;;;;12.36;61.24;96824.88;1764064;80;21042;-72
2021/05/05 05:44:43;;;;;;;22.85;13.98;;;;;;;12.47;60.80;96828.62;1764110;81;21128;-72
2021/05/05 05:47:09;;;;;;;45.05;22.10;;;;;;;12.57;60.59;96836.47;1764055;80;21033;-72
2021/05/05 05:49:35;;;;;;;42.58;19.23;;;;;;;12.65;60.37;96832.39;1764045;81;21193;-73
2021/05/05 05:52:01;;;;;;;38.53;17.60;;;;;;;12.68;60.18;96830.94;1758136;80;21549;-72
2021/05/05 05:54:28;;;;;;;50.10;18.17;;;;;;;12.76;59.99;96838.28;1755553;81;21112;-72
2021/05/05 05:56:54;;;;;;;32.65;10.55;;;;;;;12.84;59.57;96840.19;1755423;80;21101;-72
2021/05/05 05:59:20;;;;;;;15.68;7.17;;;;;;;12.89;59.50;96837.84;1755472;81;21129;-72
2021/05/05 06:01:46;;;;;;;13.45;6.80;;;;;;;12.98;59.29;96833.98;1755517;80;21197;-72
2021/05/05 06:04:12;;;;;;;11.68;6.15;;;;;;;13.10;59.26;96829.25;1755392;81;21133;-72
2021/05/05 06:06:39;;;;;;;26.87;7.55;;;;;;;13.23;58.83;96821.47;1755495;80;21430;-72
2021/05/05 06:09:06;;;;;;;22.17;9.25;;;;;;;13.36;58.44;96823.75;1755548;81;21561;-72
2021/05/05 06:11:32;;;;;;;45.90;18.98;;;;;;;13.53;58.19;96814.72;1755386;80;21101;-72
2021/05/05 06:13:58;;;;;;;53.08;20.35;;;;;;;13.68;57.58;96822.33;1755583;81;21257;-72
2021/05/05 06:16:25;;;;;;;36.05;18.52;;;;;;;13.79;57.27;96817.30;1755452;80;21098;-72
2021/05/05 06:18:51;;;;;;;35.92;16.80;;;;;;;13.91;57.00;96813.86;1755463;81;21105;-72
2021/05/05 06:21:17;;;;;;;29.15;10.58;;;;;;;14.04;56.35;96810.89;1755481;80;21037;-72
2021/05/05 06:23:43;;;;;;;14.55;10.85;;;;;;;14.18;55.99;96798.36;1725855;81;21152;-72
2021/05/05 06:26:09;;;;;;;17.07;8.38;;;;;;;14.33;55.92;96796.97;1755388;81;21195;-72
2021/05/05 06:28:35;;;;;;;14.05;7.33;;;;;;;14.50;55.19;96797.42;1755360;81;21164;-72
2021/05/05 06:31:01;;;;;;;19.50;6.60;;;;;;;14.73;54.71;96795.92;1755377;80;21538;-72
2021/05/05 06:33:28;;;;;;;15.78;5.62;;;;;;;15.00;54.90;96793.16;1755382;81;21132;-72
2021/05/05 06:35:54;;;;;;;10.55;5.72;;;;;;;15.28;53.61;96785.69;1755537;81;21165;-72
2021/05/05 06:38:20;;;;;;;9.58;4.30;;;;;;;15.50;52.64;96785.26;1755400;80;21185;-72
2021/05/05 06:40:46;;;;;;;10.95;6.70;;;;;;;15.69;51.97;96771.85;1755425;81;21572;-72
2021/05/05 06:43:12;;;;;;;10.85;4.00;;;;;;;16.16;51.31;96763.70;1755382;80;21113;-72
2021/05/05 06:45:38;;;;;;;7.53;4.40;;;;;;;16.66;49.51;96764.52;1755445;81;21145;-72
2021/05/05 06:48:05;;;;;;;9.28;5.20;;;;;;;17.01;46.07;96768.03;1755535;80;21101;-72
2021/05/05 06:50:31;;;;;;;11.22;4.72;;;;;;;17.41;41.76;96756.33;1755387;81;21199;-73
2021/05/05 06:52:57;;;;;;;3.40;2.15;;;;;;;17.88;42.36;96756.08;1763533;80;21434;-72
2021/05/05 06:55:23;;;;;;;5.00;2.10;;;;;;;18.36;35.83;96749.84;1764148;81;21522;-72
2021/05/05 06:57:50;;;;;;;3.80;2.62;;;;;;;18.34;36.29;96744.72;1764024;80;21049;-72
2021/05/05 07:00:21;;;;;;;4.03;2.55;;;;;;;18.21;36.77;96742.71;1764046;81;21113;-73
2021/05/05 07:02:47;;;;;;;5.05;3.00;;;;;;;18.09;36.26;96742.03;1763977;80;22107;-73
2021/05/05 07:05:13;;;;;;;6.03;3.30;;;;;;;18.11;37.08;96743.26;1763987;81;21193;-74
2021/05/05 07:07:39;;;;;;;4.25;2.40;;;;;;;18.20;36.33;96737.02;1763971;80;21045;-73
2021/05/05 07:10:07;;;;;;;4.90;2.47;;;;;;;18.28;35.15;96738.72;1763975;81;21157;-73
2021/05/05 07:12:33;;;;;;;5.33;3.27;;;;;;;18.36;35.66;96734.18;1764081;80;21541;-74
2021/05/05 07:14:59;;;;;;;5.90;2.15;;;;;;;18.49;34.10;96738.37;1764107;81;22068;-74
2021/05/05 07:17:25;;;;;;;2.65;1.70;;;;;;;18.45;33.57;96736.70;1763940;80;21474;-73
2021/05/05 07:19:53;;;;;;;3.55;1.90;;;;;;;18.60;33.10;96738.58;1764071;81;21168;-75
2021/05/05 07:22:20;;;;;;;5.10;2.98;;;;;;;18.23;34.03;96726.69;1764081;80;21053;-74
2021/05/05 07:24:48;;;;;;;11.60;6.30;;;;;;;18.23;34.21;96730.80;1764033;81;21093;-74
2021/05/05 07:27:15;;;;;;;4.90;1.95;;;;;;;18.16;35.04;96725.75;1764063;80;22106;-73
2021/05/05 07:29:42;;;;;;;3.52;2.30;;;;;;;18.27;34.42;96719.31;1763970;81;21124;-74
2021/05/05 07:32:08;;;;;;;3.45;1.80;;;;;;;18.19;34.15;96711.31;1763949;80;21062;-73
2021/05/05 07:34:34;;;;;;;5.33;2.27;;;;;;;18.12;34.35;96705.70;1764016;81;21543;-74
2021/05/05 07:37:10;;;;;;;5.30;2.75;;;;;;;17.91;34.94;96701.92;1764076;80;21549;-73
2021/05/05 07:43:14;;;;;;;8.48;4.05;;;;;;;18.00;34.83;96685.48;1764029;80;21410;-72
2021/05/05 07:45:18;;;;;;;7.87;5.72;;;;;;;18.18;35.08;96678.20;1760088;81;21120;-72
2021/05/05 07:47:46;;;;;;;8.50;4.70;;;;;;;18.31;34.22;96677.70;1763030;80;21038;-73
2021/05/05 07:50:12;;;;;;;14.50;5.22;;;;;;;18.42;34.50;96664.19;1763673;81;21523;-72
2021/05/05 07:52:38;;;;;;;8.90;4.10;;;;;;;18.95;33.89;96668.48;1758039;80;21257;-73
2021/05/05 07:55:06;;;;;;;4.47;3.08;;;;;;;20.12;32.02;96660.39;1755352;81;21157;-74
2021/05/05 07:57:33;;;;;;;7.97;3.08;;;;;;;20.63;30.68;96665.31;1755444;80;21106;-73
2021/05/05 07:59:59;;;;;;;8.20;3.50;;;;;;;20.52;30.87;96668.75;1755389;81;21585;-73
2021/05/05 08:02:25;;;;;;;5.47;2.47;;;;;;;20.78;31.35;96670.59;1755431;80;21514;-73
2021/05/05 08:04:51;;;;;;;5.22;2.40;;;;;;;21.76;30.61;96657.77;1755432;81;21246;-73
2021/05/05 08:07:21;;;;;;;10.35;2.60;;;;;;;22.93;27.70;96640.86;1755306;80;21446;-73
2021/05/05 08:09:48;;;;;;;9.38;2.30;;;;;;;23.41;28.88;96639.84;1755341;81;21117;-73
2021/05/05 08:12:14;;;;;;;4.70;2.85;;;;;;;24.48;26.42;96640.34;1755422;80;21525;-73
2021/05/05 08:14:42;;;;;;;6.03;2.30;;;;;;;24.88;28.42;96634.56;1755373;81;21113;-74
2021/05/05 08:17:09;;;;;;;6.47;2.65;;;;;;;25.48;26.92;96639.63;1755412;80;21203;-73
2021/05/05 08:19:35;;;;;;;5.37;2.10;;;;;;;24.48;27.26;96634.02;1755626;81;21474;-74
2021/05/05 08:22:02;;;;;;;4.17;2.35;;;;;;;24.16;28.58;96638.29;1755323;80;21137;-74
2021/05/05 08:24:28;;;;;;;3.08;1.80;;;;;;;23.70;28.69;96637.86;1755439;81;21522;-73
2021/05/05 08:26:56;;;;;;;4.20;2.90;;;;;;;23.45;27.28;96626.03;1755343;80;21470;-73
2021/05/05 08:29:24;;;;;;;5.17;2.20;;;;;;;23.26;26.87;96634.94;1755694;81;21238;-73
2021/05/05 08:31:50;;;;;;;2.83;2.10;;;;;;;23.07;25.97;96630.62;1755489;80;21435;-74
2021/05/05 08:34:16;;;;;;;4.05;1.72;;;;;;;22.56;27.21;96621.27;1755333;81;21152;-74
2021/05/05 08:36:42;;;;;;;4.92;1.85;;;;;;;23.62;26.73;96619.71;1755283;80;21164;-75
2021/05/05 08:39:09;;;;;;;5.70;1.90;;;;;;;24.98;24.60;96614.30;1755340;81;21121;-75
2021/05/05 08:41:38;;;;;;;9.55;3.20;;;;;;;25.58;24.54;96610.22;1755286;80;21200;-75
2021/05/05 08:44:10;;;;;;;5.72;1.80;;;;;;;25.58;24.64;96611.00;1755316;81;21102;-75
2021/05/05 08:46:40;;;;;;;3.65;2.10;;;;;;;25.80;23.45;96610.78;1755344;80;21050;-75
2021/05/05 08:49:07;;;;;;;3.40;1.72;;;;;;;25.18;23.13;96604.25;1726033;81;21511;-75
2021/05/05 08:51:34;;;;;;;9.25;5.20;;;;;;;25.04;22.50;96604.39;1756601;80;21157;-73
2021/05/05 08:54:02;;;;;;;6.65;2.33;;;;;;;24.85;22.77;96604.29;1763975;81;21398;-74
2021/05/05 08:56:35;;;;;;;4.33;2.97;;;;;;;24.37;23.11;96600.08;1764288;80;21172;-73
2021/05/05 08:59:00;;;;;;;6.33;2.10;;;;;;;23.59;23.59;96583.16;1763432;81;21476;-73
2021/05/05 09:01:25;;;;;;;4.05;2.20;;;;;;;23.32;23.97;96588.34;1764230;80;21484;-72
2021/05/05 09:03:51;;;;;;;5.03;2.12;;;;;;;23.27;24.12;96582.64;1764174;81;21120;-73
2021/05/05 09:06:18;;;;;;;3.50;1.70;;;;;;;23.30;24.46;96577.69;1764151;80;21502;-73
2021/05/05 09:08:48;;;;;;;2.50;1.82;;;;;;;24.14;22.82;96572.29;1764153;81;21577;-73
2021/05/05 09:11:15;;;;;;;6.83;3.02;;;;;;;25.26;22.37;96564.78;1764090;80;21136;-73
2021/05/05 09:13:54;;;;;;;14.68;13.08;;;;;;;26.32;21.84;96563.34;1738486;81;21565;-73
2021/05/05 09:16:30;;;;;;;5.55;2.12;;;;;;;27.16;21.06;96559.09;1764077;80;21305;-74
2021/05/05 09:21:52;;;;;;;6.72;2.12;;;;;;;29.89;18.29;96551.16;1837012;76;22192;-73
2021/05/05 09:24:29;;;;;;;4.70;1.72;;;;;;;30.18;18.77;96559.53;1785878;80;21010;-74
2021/05/05 09:27:08;;;;;;;3.20;1.30;;;;;;;30.38;18.23;96537.75;1785992;79;21137;-73
2021/05/05 09:29:46;;;;;;;21.00;3.08;;;;;;;29.71;18.60;96554.45;1785886;80;20932;-73
2021/05/05 09:32:15;;;;;;;3.10;1.90;;;;;;;29.68;18.69;96548.37;1786029;79;20919;-73
2021/05/05 09:34:41;;;;;;;7.37;2.08;;;;;;;29.71;17.85;96548.87;1785867;80;20980;-72
2021/05/05 09:37:10;;;;;;;110.90;8.78;;;;;;;29.35;18.21;96544.23;1785973;79;21024;-75
2021/05/05 09:39:39;;;;;;;9.28;2.77;;;;;;;29.95;18.46;96534.04;1785812;80;21305;-75
2021/05/05 09:42:23;;;;;;;1.82;1.10;;;;;;;30.44;16.95;96529.61;1785907;79;20897;-75
2021/05/05 09:44:58;;;;;;;4.25;2.05;;;;;;;30.35;16.45;96528.09;1785831;80;21035;-74
2021/05/05 09:47:28;;;;;;;5.55;1.20;;;;;;;29.93;17.00;96527.51;1785489;79;21469;-73
2021/05/05 09:49:54;;;;;;;2.87;1.42;;;;;;;29.97;16.16;96529.56;1781325;80;21055;-74
2021/05/05 09:52:24;;;;;;;4.08;1.52;;;;;;;28.75;16.82;96536.77;1785956;79;21186;-74
2021/05/05 09:55:02;;;;;;;3.27;2.42;;;;;;;28.55;17.60;96523.53;1785898;80;20916;-74
2021/05/05 09:57:30;;;;;;;2.35;1.80;;;;;;;28.44;17.30;96525.77;1785876;79;21557;-73
2021/05/05 10:00:17;;;;;;;5.80;1.75;;;;;;;27.18;18.19;96515.00;1785954;80;26605;-73
2021/05/05 10:02:56;;;;;;;3.02;1.50;;;;;;;26.45;18.65;96524.13;1785869;79;21063;-73
2021/05/05 10:05:24;;;;;;;3.35;1.90;;;;;;;25.77;19.37;96518.09;1785905;80;21271;-73
2021/05/05 10:08:06;;;;;;;3.75;1.95;;;;;;;25.23;19.98;96515.13;1785781;79;20952;-73
2021/05/05 10:10:40;;;;;;;2.20;1.30;;;;;;;25.17;20.59;96511.83;1785820;80;21092;-73
2021/05/05 10:13:08;;;;;;;3.87;2.00;;;;;;;25.27;20.45;96511.70;1785947;79;21031;-73
2021/05/05 10:15:38;;;;;;;2.58;1.65;;;;;;;24.72;21.47;96510.44;1785966;79;21499;-73
2021/05/05 10:18:12;;;;;;;3.02;1.70;;;;;;;24.47;21.51;96512.81;1785833;79;21188;-73
2021/05/05 10:20:39;;;;;;;3.25;2.20;;;;;;;24.29;21.94;96512.13;1785653;79;21066;-74
2021/05/05 10:23:05;;;;;;;6.28;2.52;;;;;;;24.42;21.59;96504.14;1725952;80;21113;-74
2021/05/05 10:25:31;;;;;;;9.80;3.10;;;;;;;24.87;21.74;96504.19;1785802;80;21099;-74
2021/05/05 10:27:58;;;;;;;3.30;2.35;;;;;;;24.75;21.76;96504.86;1785924;79;21526;-74
2021/05/05 10:30:30;;;;;;;5.55;2.60;;;;;;;24.21;22.57;96505.06;1755387;80;22307;-74
2021/05/05 10:32:56;;;;;;;4.87;3.10;;;;;;;24.00;22.99;96502.41;1785222;79;21023;-73
2021/05/05 10:35:22;;;;;;;5.22;2.35;;;;;;;23.59;23.75;96502.99;1785243;80;21059;-73
2021/05/05 10:38:00;;;;;;;13.93;3.35;;;;;;;23.25;23.98;96497.19;1785227;79;21117;-73
2021/05/05 10:40:33;;;;;;;2.45;1.98;;;;;;;23.24;23.93;96501.91;1756595;80;21011;-73
2021/05/05 10:43:00;;;;;;;3.90;2.15;;;;;;;23.00;24.58;96506.91;1784997;79;22086;-73
2021/05/05 10:45:36;;;;;;;4.45;2.30;;;;;;;22.77;24.36;96503.16;1785262;80;21440;-73
2021/05/05 10:48:07;;;;;;;4.50;2.10;;;;;;;22.63;24.30;96492.11;1785266;79;21129;-73
2021/05/05 10:50:50;;;;;;;3.42;2.08;;;;;;;22.39;25.00;96487.60;1785230;80;21030;-74
2021/05/05 10:53:44;;;;;;;4.60;2.77;;;;;;;22.40;24.88;96491.14;1883410;76;22251;-73
2021/05/05 10:56:27;;;;;;;6.12;2.22;;;;;;;22.55;24.88;96487.77;1854248;77;21464;-74
2021/05/05 10:59:07;;;;;;;4.03;2.10;;;;;;;22.78;24.55;96485.40;1854229;77;21190;-74
2021/05/05 11:01:41;;;;;;;2.37;1.47;;;;;;;22.51;24.85;96480.89;1853906;77;21063;-73
2021/05/05 11:04:17;;;;;;;3.83;1.87;;;;;;;22.24;25.03;96482.66;1854243;77;21260;-73
2021/05/05 11:06:47;;;;;;;5.67;2.12;;;;;;;22.04;25.87;96488.30;1851883;77;21031;-73
2021/05/05 11:09:19;;;;;;;3.70;2.37;;;;;;;22.17;25.53;96481.27;1854292;77;20921;-74
2021/05/05 11:11:49;;;;;;;5.80;3.08;;;;;;;22.16;25.45;96487.97;1854232;77;21151;-73
2021/05/05 11:14:32;;;;;;;5.25;2.30;;;;;;;22.17;25.70;96489.54;1821572;77;20917;-73
2021/05/05 11:17:03;;;;;;;4.75;2.52;;;;;;;22.15;25.49;96486.98;1854132;77;21527;-73
2021/05/05 11:19:41;;;;;;;6.12;3.20;;;;;;;22.03;25.62;96489.48;1854155;77;21067;-74
2021/05/05 11:22:27;;;;;;;5.87;1.97;;;;;;;22.32;25.42;96493.11;1854352;77;21087;-73
2021/05/05 11:24:53;;;;;;;4.10;3.52;;;;;;;22.17;25.99;96481.27;1784858;80;21324;-73
2021/05/05 11:27:30;;;;;;;8.58;4.40;;;;;;;22.03;26.04;96473.52;1788224;80;21086;-73
2021/05/05 11:30:32;;;;;;;10.78;7.97;;;;;;;21.85;25.90;96470.73;1847704;76;23078;-73
2021/05/05 11:32:58;;;;;;;6.22;4.42;;;;;;;21.31;26.73;96476.66;1792003;78;21615;-72
2021/05/05 11:35:27;;;;;;;5.87;3.65;;;;;;;21.17;27.29;96477.93;1785894;80;21282;-72
2021/05/05 11:38:08;;;;;;;6.97;3.58;;;;;;;21.19;27.57;96472.81;1731883;81;21452;-73